createdAt,value
2019-04-29T00:00:48.736Z,10.82
2019-04-29T00:01:48.754Z,10.82
2019-04-29T00:02:48.712Z,10.79
2019-04-29T00:03:48.696Z,10.81
2019-04-29T00:04:48.696Z,10.85
2019-04-29T00:05:48.677Z,10.81
2019-04-29T00:06:48.698Z,10.76
2019-04-29T00:07:48.652Z,10.92
2019-04-29T00:08:48.644Z,10.85
2019-04-29T00:09:48.635Z,10.89
2019-04-29T00:10:48.616Z,10.82
2019-04-29T00:11:48.640Z,10.84
2019-04-29T00:12:48.594Z,10.79
2019-04-29T00:13:48.585Z,10.82
2019-04-29T00:14:48.574Z,10.70
2019-04-29T00:15:48.572Z,10.76
2019-04-29T00:16:48.584Z,10.78
2019-04-29T00:17:48.551Z,10.73
2019-04-29T00:18:48.565Z,10.76
2019-04-29T00:19:48.517Z,10.82
2019-04-29T00:20:48.512Z,10.78
2019-04-29T00:21:48.533Z,10.73
2019-04-29T00:22:48.487Z,10.74
2019-04-29T00:23:48.478Z,10.81
2019-04-29T00:24:48.460Z,10.74
2019-04-29T00:25:48.458Z,10.68
2019-04-29T00:26:48.469Z,10.67
2019-04-29T00:27:48.439Z,10.68
2019-04-29T00:28:50.442Z,10.70
2019-04-29T00:29:48.409Z,10.79
2019-04-29T00:30:48.397Z,10.67
2019-04-29T00:31:48.416Z,10.78
2019-04-29T00:32:48.389Z,10.73
2019-04-29T00:33:48.362Z,10.68
2019-04-29T00:34:48.352Z,10.73
2019-04-29T00:35:48.353Z,10.68
2019-04-29T00:36:48.371Z,10.68
2019-04-29T00:37:48.328Z,10.66
2019-04-29T00:38:48.306Z,10.67
2019-04-29T00:39:48.297Z,10.67
2019-04-29T00:40:48.279Z,10.71
2019-04-29T00:41:48.268Z,10.68
2019-04-29T00:42:48.298Z,10.73
2019-04-29T00:43:48.263Z,10.64
2019-04-29T00:44:48.239Z,10.71
2019-04-29T00:45:48.224Z,10.73
2019-04-29T00:46:48.215Z,10.73
2019-04-29T00:47:48.238Z,10.74
2019-04-29T00:48:48.194Z,10.68
2019-04-29T00:49:48.199Z,10.68
2019-04-29T00:50:48.170Z,10.67
2019-04-29T00:51:48.152Z,10.79
2019-04-29T00:52:48.189Z,10.74
2019-04-29T00:53:48.137Z,10.84
2019-04-29T00:54:48.134Z,10.74
2019-04-29T00:55:48.115Z,10.76
2019-04-29T00:56:48.101Z,10.78
2019-04-29T00:57:48.123Z,10.70
2019-04-29T00:58:48.079Z,10.81
2019-04-29T00:59:48.068Z,10.64
2019-04-29T01:00:48.054Z,10.68
2019-04-29T01:01:48.047Z,10.66
2019-04-29T01:02:48.082Z,10.66
2019-04-29T01:03:48.017Z,10.68
2019-04-29T01:04:48.014Z,10.60
2019-04-29T01:05:47.995Z,10.60
2019-04-29T01:06:47.991Z,10.55
2019-04-29T01:07:48.008Z,10.61
2019-04-29T01:08:47.964Z,10.56
2019-04-29T01:09:47.954Z,10.59
2019-04-29T01:10:47.945Z,10.51
2019-04-29T01:11:47.936Z,10.42
2019-04-29T01:12:47.956Z,10.47
2019-04-29T01:13:47.905Z,10.42
2019-04-29T01:14:47.912Z,10.45
2019-04-29T01:15:47.882Z,10.45
2019-04-29T01:16:47.878Z,10.47
2019-04-29T01:17:47.864Z,10.42
2019-04-29T01:18:47.883Z,10.48
2019-04-29T01:19:47.837Z,10.42
2019-04-29T01:20:47.832Z,10.29
2019-04-29T01:21:47.819Z,10.33
2019-04-29T01:22:47.811Z,10.36
2019-04-29T01:23:47.828Z,10.27
2019-04-29T01:24:47.784Z,10.25
2019-04-29T01:25:47.771Z,10.29
2019-04-29T01:26:47.757Z,10.25
2019-04-29T01:27:47.747Z,10.22
2019-04-29T01:28:49.406Z,10.22
2019-04-29T01:29:47.725Z,10.15
2019-04-29T01:30:47.715Z,10.25
2019-04-29T01:31:47.707Z,10.17
2019-04-29T01:32:47.694Z,10.08
2019-04-29T01:33:47.745Z,10.12
2019-04-29T01:34:47.671Z,10.17
2019-04-29T01:35:47.663Z,10.04
2019-04-29T01:36:47.652Z,10.08
2019-04-29T01:37:47.640Z,10.05
2019-04-29T01:38:48.834Z,10.02
2019-04-29T01:39:47.612Z,10.01
2019-04-29T01:40:47.626Z,9.94
2019-04-29T01:41:47.631Z,9.91
2019-04-29T01:42:47.575Z,9.94
2019-04-29T01:43:47.600Z,9.94
2019-04-29T01:44:47.564Z,10.01
2019-04-29T01:45:47.547Z,9.94
2019-04-29T01:46:47.544Z,9.93
2019-04-29T01:47:47.525Z,9.91
2019-04-29T01:48:47.510Z,9.91
2019-04-29T01:49:47.533Z,9.90
2019-04-29T01:50:47.496Z,9.97
2019-04-29T01:51:47.481Z,9.87
2019-04-29T01:52:47.471Z,9.89
2019-04-29T01:53:47.468Z,9.93
2019-04-29T01:54:47.480Z,9.84
2019-04-29T01:55:47.437Z,9.84
2019-04-29T01:56:47.438Z,9.87
2019-04-29T01:57:47.413Z,9.76
2019-04-29T01:58:47.403Z,9.75
2019-04-29T01:59:47.421Z,9.78
2019-04-29T02:00:47.400Z,9.78
2019-04-29T02:01:47.389Z,9.76
2019-04-29T02:02:47.364Z,9.79
2019-04-29T02:03:47.346Z,9.74
2019-04-29T02:04:47.367Z,9.83
2019-04-29T02:05:47.323Z,9.86
2019-04-29T02:06:47.313Z,9.87
2019-04-29T02:07:47.310Z,9.78
2019-04-29T02:08:47.295Z,9.83
2019-04-29T02:09:47.325Z,9.75
2019-04-29T02:10:47.270Z,9.76
2019-04-29T02:11:47.262Z,9.72
2019-04-29T02:12:47.245Z,9.71
2019-04-29T02:13:47.230Z,9.72
2019-04-29T02:14:47.261Z,9.68
2019-04-29T02:15:47.216Z,9.74
2019-04-29T02:16:47.209Z,9.74
2019-04-29T02:17:47.189Z,9.79
2019-04-29T02:18:47.190Z,9.64
2019-04-29T02:19:47.207Z,9.66
2019-04-29T02:20:47.153Z,9.65
2019-04-29T02:21:47.147Z,9.75
2019-04-29T02:22:47.134Z,9.66
2019-04-29T02:23:47.125Z,9.74
2019-04-29T02:24:47.143Z,9.71
2019-04-29T02:25:47.099Z,9.66
2019-04-29T02:26:47.167Z,9.74
2019-04-29T02:27:47.075Z,9.64
2019-04-29T02:28:47.074Z,9.72
2019-04-29T02:29:47.057Z,9.79
2019-04-29T02:30:47.076Z,9.69
2019-04-29T02:31:47.037Z,9.72
2019-04-29T02:32:47.020Z,9.78
2019-04-29T02:33:47.013Z,9.76
2019-04-29T02:34:47.001Z,9.74
2019-04-29T02:35:47.055Z,9.81
2019-04-29T02:36:46.987Z,9.76
2019-04-29T02:37:46.969Z,9.78
2019-04-29T02:38:46.960Z,9.76
2019-04-29T02:39:46.951Z,9.76
2019-04-29T02:40:47.027Z,9.75
2019-04-29T02:41:46.935Z,9.69
2019-04-29T02:42:46.913Z,9.68
2019-04-29T02:43:46.900Z,9.66
2019-04-29T02:44:46.893Z,9.74
2019-04-29T02:45:46.928Z,9.78
2019-04-29T02:46:46.879Z,9.64
2019-04-29T02:47:46.900Z,9.61
2019-04-29T02:48:46.843Z,9.69
2019-04-29T02:49:46.856Z,9.66
2019-04-29T02:50:46.865Z,9.56
2019-04-29T02:51:46.841Z,9.71
2019-04-29T02:52:46.804Z,9.61
2019-04-29T02:53:46.793Z,9.64
2019-04-29T02:54:46.798Z,9.65
2019-04-29T02:55:46.826Z,9.74
2019-04-29T02:56:46.765Z,9.71
2019-04-29T02:57:46.748Z,9.66
2019-04-29T02:58:46.732Z,9.65
2019-04-29T02:59:46.725Z,9.66
2019-04-29T03:00:46.744Z,9.69
2019-04-29T03:01:46.709Z,9.68
2019-04-29T03:02:46.711Z,9.61
2019-04-29T03:03:46.682Z,9.64
2019-04-29T03:04:46.673Z,9.75
2019-04-29T03:05:46.660Z,9.61
2019-04-29T03:06:46.679Z,9.72
2019-04-29T03:07:46.635Z,9.72
2019-04-29T03:08:46.627Z,9.76
2019-04-29T03:09:46.622Z,9.74
2019-04-29T03:10:46.601Z,9.60
2019-04-29T03:11:46.619Z,9.60
2019-04-29T03:12:46.588Z,9.66
2019-04-29T03:13:46.573Z,9.60
2019-04-29T03:14:46.592Z,9.65
2019-04-29T03:15:46.554Z,9.61
2019-04-29T03:16:46.579Z,9.65
2019-04-29T03:17:46.525Z,9.58
2019-04-29T03:18:46.512Z,9.61
2019-04-29T03:19:46.510Z,9.60
2019-04-29T03:20:46.500Z,9.64
2019-04-29T03:21:46.515Z,9.57
2019-04-29T03:22:46.476Z,9.54
2019-04-29T03:23:46.460Z,9.53
2019-04-29T03:24:46.456Z,9.50
2019-04-29T03:25:46.464Z,9.48
2019-04-29T03:26:46.466Z,9.64
2019-04-29T03:27:46.416Z,9.61
2019-04-29T03:28:46.399Z,9.60
2019-04-29T03:29:46.396Z,9.58
2019-04-29T03:30:46.394Z,9.54
2019-04-29T03:31:46.407Z,9.57
2019-04-29T03:32:46.376Z,9.58
2019-04-29T03:33:46.357Z,9.71
2019-04-29T03:34:46.354Z,9.61
2019-04-29T03:35:46.334Z,9.57
2019-04-29T03:36:46.317Z,9.58
2019-04-29T03:37:46.346Z,9.60
2019-04-29T03:38:46.289Z,9.57
2019-04-29T03:39:46.282Z,9.71
2019-04-29T03:40:46.277Z,9.60
2019-04-29T03:41:46.259Z,9.53
2019-04-29T03:42:46.275Z,9.58
2019-04-29T03:43:46.235Z,9.60
2019-04-29T03:44:46.233Z,9.60
2019-04-29T03:45:46.214Z,9.60
2019-04-29T03:46:46.207Z,9.66
2019-04-29T03:47:46.221Z,9.60
2019-04-29T03:48:46.183Z,9.61
2019-04-29T03:49:46.196Z,9.66
2019-04-29T03:50:46.161Z,9.66
2019-04-29T03:51:46.150Z,9.60
2019-04-29T03:52:46.174Z,9.54
2019-04-29T03:53:46.129Z,9.58
2019-04-29T03:54:46.124Z,9.60
2019-04-29T03:55:46.117Z,9.57
2019-04-29T03:56:46.094Z,9.60
2019-04-29T03:57:46.142Z,9.66
2019-04-29T03:58:46.070Z,9.64
2019-04-29T03:59:46.058Z,9.57
2019-04-29T04:00:46.052Z,9.61
2019-04-29T04:01:46.042Z,9.65
2019-04-29T04:02:46.065Z,9.64
2019-04-29T04:03:46.023Z,9.69
2019-04-29T04:04:46.009Z,9.61
2019-04-29T04:05:45.997Z,9.64
2019-04-29T04:06:45.981Z,9.64
2019-04-29T04:07:46.016Z,9.71
2019-04-29T04:09:04.300Z,9.66
2019-04-29T04:09:46.959Z,9.65
2019-04-29T04:10:45.937Z,9.58
2019-04-29T04:11:45.925Z,9.68
2019-04-29T04:12:46.073Z,9.72
2019-04-29T04:13:45.907Z,9.64
2019-04-29T04:14:45.898Z,9.64
2019-04-29T04:15:45.903Z,9.71
2019-04-29T04:16:45.881Z,9.71
2019-04-29T04:17:46.015Z,9.69
2019-04-29T04:18:45.845Z,9.68
2019-04-29T04:19:45.840Z,9.64
2019-04-29T04:20:45.836Z,9.66
2019-04-29T04:21:45.819Z,9.72
2019-04-29T04:22:45.845Z,9.75
2019-04-29T04:23:45.802Z,9.72
2019-04-29T04:24:45.781Z,9.75
2019-04-29T04:25:45.857Z,9.69
2019-04-29T04:26:45.766Z,9.71
2019-04-29T04:27:45.783Z,9.71
2019-04-29T04:28:45.749Z,9.76
2019-04-29T04:29:45.730Z,9.71
2019-04-29T04:30:45.723Z,9.69
2019-04-29T04:31:45.707Z,9.78
2019-04-29T04:32:45.696Z,9.69
2019-04-29T04:33:45.721Z,9.81
2019-04-29T04:34:45.674Z,9.76
2019-04-29T04:35:45.660Z,9.78
2019-04-29T04:36:45.649Z,9.81
2019-04-29T04:37:45.642Z,9.79
2019-04-29T04:38:45.718Z,9.72
2019-04-29T04:39:45.619Z,9.71
2019-04-29T04:40:45.603Z,9.78
2019-04-29T04:41:45.596Z,9.76
2019-04-29T04:42:45.599Z,9.75
2019-04-29T04:43:45.618Z,9.69
2019-04-29T04:44:45.557Z,9.74
2019-04-29T04:45:45.558Z,9.74
2019-04-29T04:46:45.546Z,9.74
2019-04-29T04:47:45.535Z,9.75
2019-04-29T04:48:45.550Z,9.69
2019-04-29T04:49:45.502Z,9.76
2019-04-29T04:50:45.491Z,9.71
2019-04-29T04:51:45.482Z,9.74
2019-04-29T04:52:45.473Z,9.69
2019-04-29T04:53:45.505Z,9.74
2019-04-29T04:54:45.456Z,9.78
2019-04-29T04:55:45.442Z,9.78
2019-04-29T04:56:45.431Z,9.83
2019-04-29T04:57:45.414Z,9.84
2019-04-29T04:58:45.447Z,9.87
2019-04-29T04:59:45.398Z,9.87
2019-04-29T05:00:45.386Z,9.91
2019-04-29T05:01:45.380Z,9.89
2019-04-29T05:02:45.374Z,9.94
2019-04-29T05:03:45.378Z,9.93
2019-04-29T05:04:45.345Z,9.90
2019-04-29T05:05:45.327Z,9.86
2019-04-29T05:06:45.322Z,9.93
2019-04-29T05:07:45.317Z,9.93
2019-04-29T05:08:45.326Z,9.87
2019-04-29T05:09:45.280Z,9.94
2019-04-29T05:10:45.269Z,9.90
2019-04-29T05:11:45.262Z,9.99
2019-04-29T05:12:45.247Z,9.97
2019-04-29T05:13:45.275Z,10.04
2019-04-29T05:14:45.244Z,10.04
2019-04-29T05:15:45.229Z,10.01
2019-04-29T05:16:45.206Z,10.07
2019-04-29T05:17:45.201Z,10.07
2019-04-29T05:18:45.218Z,10.07
2019-04-29T05:19:45.172Z,10.07
2019-04-29T05:20:45.164Z,10.09
2019-04-29T05:21:45.173Z,10.07
2019-04-29T05:22:45.142Z,10.02
2019-04-29T05:23:45.168Z,10.11
2019-04-29T05:24:45.119Z,10.11
2019-04-29T05:25:45.116Z,10.09
2019-04-29T05:26:45.097Z,10.12
2019-04-29T05:27:45.084Z,10.05
2019-04-29T05:28:45.082Z,10.08
2019-04-29T05:29:45.097Z,10.09
2019-04-29T05:30:45.062Z,10.14
2019-04-29T05:31:45.054Z,10.09
2019-04-29T05:32:45.023Z,10.02
2019-04-29T05:33:45.015Z,10.07
2019-04-29T05:34:46.514Z,10.01
2019-04-29T05:35:44.991Z,10.01
2019-04-29T05:36:44.988Z,9.97
2019-04-29T05:37:44.978Z,10.05
2019-04-29T05:38:44.961Z,10.09
2019-04-29T05:39:44.981Z,10.08
2019-04-29T05:40:44.933Z,10.11
2019-04-29T05:41:44.925Z,10.09
2019-04-29T05:42:48.287Z,10.05
2019-04-29T05:43:44.912Z,10.11
2019-04-29T05:44:44.961Z,10.20
2019-04-29T05:45:46.207Z,10.15
2019-04-29T05:46:44.875Z,10.20
2019-04-29T05:47:44.865Z,10.23
2019-04-29T05:48:44.852Z,10.22
2019-04-29T05:49:44.875Z,10.23
2019-04-29T05:50:47.633Z,10.29
2019-04-29T05:51:45.819Z,10.22
2019-04-29T05:52:44.800Z,10.25
2019-04-29T05:53:47.797Z,10.22
2019-04-29T05:54:45.818Z,10.15
2019-04-29T05:55:44.776Z,10.11
2019-04-29T05:56:44.761Z,10.17
2019-04-29T05:57:44.755Z,10.07
2019-04-29T05:58:44.749Z,10.11
2019-04-29T05:59:47.896Z,10.05
2019-04-29T06:00:44.718Z,10.12
2019-04-29T06:01:47.295Z,10.09
2019-04-29T06:02:44.696Z,10.07
2019-04-29T06:03:44.687Z,10.12
2019-04-29T06:04:48.170Z,10.14
2019-04-29T06:05:45.661Z,10.22
2019-04-29T06:06:44.646Z,10.18
2019-04-29T06:07:44.643Z,10.20
2019-04-29T06:08:44.625Z,10.23
2019-04-29T06:09:44.643Z,10.08
2019-04-29T06:10:44.597Z,10.11
2019-04-29T06:11:44.593Z,10.08
2019-04-29T06:12:44.749Z,10.14
2019-04-29T06:13:44.563Z,10.04
2019-04-29T06:14:44.596Z,10.09
2019-04-29T06:15:44.542Z,10.05
2019-04-29T06:16:44.538Z,10.07
2019-04-29T06:17:46.218Z,10.08
2019-04-29T06:18:44.517Z,10.05
2019-04-29T06:19:44.583Z,10.14
2019-04-29T06:20:44.490Z,10.17
2019-04-29T06:21:44.486Z,10.04
2019-04-29T06:22:44.472Z,10.07
2019-04-29T06:23:44.463Z,10.09
2019-04-29T06:24:44.461Z,10.02
2019-04-29T06:25:44.465Z,10.07
2019-04-29T06:26:44.446Z,10.18
2019-04-29T06:27:44.409Z,10.18
2019-04-29T06:28:44.439Z,10.05
2019-04-29T06:29:44.386Z,10.05
2019-04-29T06:30:49.706Z,10.04
2019-04-29T06:31:45.370Z,10.09
2019-04-29T06:32:44.369Z,10.01
2019-04-29T06:33:44.343Z,10.05
2019-04-29T06:34:44.337Z,10.04
2019-04-29T06:35:47.341Z,9.93
2019-04-29T06:36:44.309Z,9.97
2019-04-29T06:37:44.298Z,9.89
2019-04-29T06:38:44.292Z,10.01
2019-04-29T06:39:44.283Z,10.01
2019-04-29T06:40:44.307Z,9.99
2019-04-29T06:41:45.111Z,10.07
2019-04-29T06:42:44.286Z,10.08
2019-04-29T06:43:44.241Z,10.05
2019-04-29T06:44:48.519Z,10.14
2019-04-29T06:45:44.246Z,10.18
2019-04-29T06:46:44.217Z,10.25
2019-04-29T06:47:44.192Z,10.22
2019-04-29T06:48:44.180Z,10.09
2019-04-29T06:49:44.169Z,10.12
2019-04-29T06:50:44.198Z,10.18
2019-04-29T06:51:44.145Z,10.08
2019-04-29T06:52:44.166Z,10.22
2019-04-29T06:53:44.118Z,10.18
2019-04-29T06:54:44.113Z,10.26
2019-04-29T06:55:44.138Z,10.20
2019-04-29T06:56:44.092Z,10.27
2019-04-29T06:57:44.073Z,10.20
2019-04-29T06:58:44.064Z,10.26
2019-04-29T06:59:47.522Z,10.23
2019-04-29T07:00:44.083Z,10.22
2019-04-29T07:01:44.030Z,10.18
2019-04-29T07:02:45.506Z,10.15
2019-04-29T07:03:45.005Z,10.29
2019-04-29T07:04:43.998Z,10.26
2019-04-29T07:05:44.036Z,10.27
2019-04-29T07:06:56.808Z,10.25
2019-04-29T07:07:44.974Z,10.29
2019-04-29T07:08:43.954Z,10.34
2019-04-29T07:09:43.952Z,10.22
2019-04-29T07:10:43.965Z,10.30
2019-04-29T07:11:43.949Z,10.30
2019-04-29T07:12:47.438Z,10.36
2019-04-29T07:13:46.510Z,10.36
2019-04-29T07:14:43.888Z,10.32
2019-04-29T07:15:47.791Z,10.42
2019-04-29T07:16:44.873Z,10.34
2019-04-29T07:17:43.860Z,10.41
2019-04-29T07:18:47.876Z,10.55
2019-04-29T07:19:44.834Z,10.56
2019-04-29T07:20:43.826Z,10.60
2019-04-29T07:21:47.086Z,10.60
2019-04-29T07:22:43.800Z,10.59
2019-04-29T07:23:43.798Z,10.59
2019-04-29T07:24:43.782Z,10.56
2019-04-29T07:25:43.774Z,10.66
2019-04-29T07:26:43.792Z,10.67
2019-04-29T07:27:44.623Z,10.67
2019-04-29T07:28:43.729Z,10.64
2019-04-29T07:29:43.714Z,10.76
2019-04-29T07:31:00.431Z,10.78
2019-04-29T07:31:44.723Z,10.71
2019-04-29T07:32:47.079Z,10.79
2019-04-29T07:33:44.666Z,10.85
2019-04-29T07:34:43.669Z,10.85
2019-04-29T07:35:47.907Z,10.86
2019-04-29T07:36:44.678Z,10.79
2019-04-29T07:37:43.630Z,10.79
2019-04-29T07:38:46.462Z,10.79
2019-04-29T07:39:44.599Z,10.74
2019-04-29T07:40:44.661Z,10.94
2019-04-29T07:41:43.625Z,10.88
2019-04-29T07:42:43.566Z,10.84
2019-04-29T07:43:44.255Z,10.81
2019-04-29T07:44:44.343Z,10.71
2019-04-29T07:45:44.669Z,10.82
2019-04-29T07:46:56.397Z,10.86
2019-04-29T07:47:55.871Z,10.79
2019-04-29T07:48:44.504Z,10.73
2019-04-29T07:49:43.515Z,10.86
2019-04-29T07:50:43.555Z,10.88
2019-04-29T07:51:43.500Z,10.88
2019-04-29T07:52:45.678Z,10.89
2019-04-29T07:53:45.415Z,10.99
2019-04-29T07:54:43.461Z,11.09
2019-04-29T07:55:43.426Z,11.04
2019-04-29T07:56:43.667Z,11.10
2019-04-29T07:57:43.443Z,11.17
2019-04-29T07:58:43.403Z,11.06
2019-04-29T07:59:43.383Z,11.09
2019-04-29T08:00:44.636Z,10.94
2019-04-29T08:01:44.369Z,10.96
2019-04-29T08:02:43.391Z,10.99
2019-04-29T08:03:43.335Z,10.96
2019-04-29T08:04:43.333Z,10.94
2019-04-29T08:05:43.320Z,10.92
2019-04-29T08:06:44.915Z,10.97
2019-04-29T08:07:43.338Z,10.99
2019-04-29T08:08:54.418Z,10.99
2019-04-29T08:09:45.284Z,10.91
2019-04-29T08:10:55.522Z,10.99
2019-04-29T08:11:44.240Z,11.10
2019-04-29T08:12:43.277Z,11.03
2019-04-29T08:13:43.226Z,11.04
2019-04-29T08:14:43.216Z,11.11
2019-04-29T08:15:43.652Z,11.11
2019-04-29T08:16:43.192Z,11.02
2019-04-29T08:17:43.207Z,10.92
2019-04-29T08:18:43.162Z,10.89
2019-04-29T08:19:43.160Z,10.96
2019-04-29T08:20:43.142Z,10.97
2019-04-29T08:21:45.602Z,10.96
2019-04-29T08:22:44.160Z,11.04
2019-04-29T08:23:43.109Z,10.97
2019-04-29T08:24:46.027Z,10.94
2019-04-29T08:25:44.092Z,11.00
2019-04-29T08:26:47.359Z,10.99
2019-04-29T08:27:43.863Z,10.99
2019-04-29T08:28:43.057Z,11.04
2019-04-29T08:29:43.049Z,11.00
2019-04-29T08:30:45.848Z,10.96
2019-04-29T08:31:43.022Z,11.02
2019-04-29T08:32:43.047Z,11.00
2019-04-29T08:33:46.806Z,10.91
2019-04-29T08:34:43.998Z,11.14
2019-04-29T08:35:42.978Z,11.15
2019-04-29T08:36:42.983Z,11.06
2019-04-29T08:37:42.989Z,11.22
2019-04-29T08:38:42.941Z,11.19
2019-04-29T08:39:42.950Z,11.22
2019-04-29T08:40:45.111Z,11.04
2019-04-29T08:41:43.912Z,11.09
2019-04-29T08:42:46.534Z,11.09
2019-04-29T08:43:42.885Z,11.04
2019-04-29T08:44:42.873Z,11.06
2019-04-29T08:45:42.885Z,11.09
2019-04-29T08:46:44.497Z,11.06
2019-04-29T08:47:43.888Z,11.06
2019-04-29T08:48:45.759Z,11.18
2019-04-29T08:49:42.818Z,11.22
2019-04-29T08:50:42.821Z,11.21
2019-04-29T08:51:42.804Z,11.18
2019-04-29T08:52:42.838Z,11.00
2019-04-29T08:53:42.785Z,10.88
2019-04-29T08:54:42.770Z,10.97
2019-04-29T08:55:42.751Z,10.94
2019-04-29T08:57:01.889Z,11.07
2019-04-29T08:57:43.789Z,11.21
2019-04-29T08:58:44.353Z,11.22
2019-04-29T08:59:43.713Z,11.28
2019-04-29T09:00:42.701Z,11.32
2019-04-29T09:01:42.692Z,11.28
2019-04-29T09:02:47.288Z,11.27
2019-04-29T09:03:43.714Z,11.27
2019-04-29T09:04:53.410Z,11.33
2019-04-29T09:05:46.205Z,11.40
2019-04-29T09:06:42.633Z,11.46
2019-04-29T09:07:42.629Z,11.60
2019-04-29T09:08:54.038Z,11.65
2019-04-29T09:09:43.601Z,11.72
2019-04-29T09:10:42.595Z,11.73
2019-04-29T09:11:43.568Z,11.57
2019-04-29T09:12:42.577Z,11.43
2019-04-29T09:13:42.592Z,11.47
2019-04-29T09:14:42.538Z,11.51
2019-04-29T09:15:42.544Z,11.52
2019-04-29T09:16:42.523Z,11.60
2019-04-29T09:17:42.522Z,11.54
2019-04-29T09:18:42.537Z,11.58
2019-04-29T09:19:42.503Z,11.65
2019-04-29T09:20:42.496Z,11.82
2019-04-29T09:21:42.469Z,11.82
2019-04-29T09:22:42.445Z,11.96
2019-04-29T09:23:42.480Z,11.99
2019-04-29T09:24:43.686Z,12.01
2019-04-29T09:25:43.434Z,12.09
2019-04-29T09:26:42.408Z,12.01
2019-04-29T09:27:44.949Z,11.95
2019-04-29T09:28:42.382Z,12.02
2019-04-29T09:29:42.411Z,12.04
2019-04-29T09:30:42.364Z,11.95
2019-04-29T09:31:42.350Z,11.96
2019-04-29T09:32:42.351Z,12.01
2019-04-29T09:33:44.118Z,12.05
2019-04-29T09:34:43.348Z,12.10
2019-04-29T09:35:42.341Z,12.04
2019-04-29T09:36:43.998Z,11.95
2019-04-29T09:37:43.286Z,11.96
2019-04-29T09:38:42.285Z,12.05
2019-04-29T09:39:43.774Z,12.10
2019-04-29T09:40:45.448Z,11.98
2019-04-29T09:41:42.247Z,12.04
2019-04-29T09:42:45.539Z,11.99
2019-04-29T09:43:43.213Z,11.99
2019-04-29T09:44:44.800Z,11.99
2019-04-29T09:45:42.219Z,12.01
2019-04-29T09:46:42.182Z,11.98
2019-04-29T09:47:42.185Z,12.10
2019-04-29T09:48:42.160Z,12.04
2019-04-29T09:49:42.184Z,12.13
2019-04-29T09:50:42.136Z,12.19
2019-04-29T09:51:42.131Z,12.23
2019-04-29T09:52:42.124Z,12.07
2019-04-29T09:53:42.113Z,12.14
2019-04-29T09:54:42.142Z,11.98
2019-04-29T09:55:42.095Z,12.01
2019-04-29T09:56:42.075Z,12.10
2019-04-29T09:57:42.063Z,12.02
2019-04-29T09:58:42.045Z,12.13
2019-04-29T09:59:42.076Z,12.17
2019-04-29T10:00:42.085Z,12.09
2019-04-29T10:01:42.048Z,12.12
2019-04-29T10:02:42.012Z,12.21
2019-04-29T10:03:42.050Z,12.29
2019-04-29T10:04:55.537Z,12.31
2019-04-29T10:05:42.973Z,12.39
2019-04-29T10:06:41.964Z,12.35
2019-04-29T10:07:41.964Z,12.45
2019-04-29T10:08:41.940Z,12.41
2019-04-29T10:09:56.176Z,12.41
2019-04-29T10:10:42.950Z,12.35
2019-04-29T10:11:41.906Z,12.46
2019-04-29T10:12:41.892Z,12.39
2019-04-29T10:13:41.879Z,12.29
2019-04-29T10:14:41.873Z,12.27
2019-04-29T10:15:41.905Z,12.24
2019-04-29T10:16:41.851Z,12.21
2019-04-29T10:17:45.816Z,12.29
2019-04-29T10:18:42.825Z,12.39
2019-04-29T10:19:41.817Z,12.35
2019-04-29T10:20:41.836Z,12.37
2019-04-29T10:21:41.806Z,12.35
2019-04-29T10:22:41.790Z,12.37
2019-04-29T10:23:41.779Z,12.32
2019-04-29T10:24:41.782Z,12.28
2019-04-29T10:25:41.782Z,12.31
2019-04-29T10:26:41.738Z,12.24
2019-04-29T10:27:41.723Z,12.23
2019-04-29T10:28:41.728Z,12.27
2019-04-29T10:29:41.721Z,12.29
2019-04-29T10:30:41.728Z,12.20
2019-04-29T10:31:41.681Z,12.13
2019-04-29T10:32:42.293Z,12.19
2019-04-29T10:33:41.661Z,12.19
2019-04-29T10:34:43.215Z,12.24
2019-04-29T10:35:45.233Z,12.16
2019-04-29T10:36:41.664Z,12.24
2019-04-29T10:37:41.615Z,12.19
2019-04-29T10:38:45.022Z,12.17
2019-04-29T10:39:42.467Z,12.16
2019-04-29T10:40:41.585Z,12.19
2019-04-29T10:41:41.812Z,12.21
2019-04-29T10:42:41.572Z,12.14
2019-04-29T10:43:41.547Z,12.19
2019-04-29T10:44:41.533Z,12.20
2019-04-29T10:45:41.530Z,12.28
2019-04-29T10:46:41.555Z,12.24
2019-04-29T10:47:41.500Z,12.37
2019-04-29T10:48:41.493Z,12.41
2019-04-29T10:49:41.490Z,12.41
2019-04-29T10:50:41.478Z,12.47
2019-04-29T10:51:41.500Z,12.47
2019-04-29T10:52:43.511Z,12.49
2019-04-29T10:53:41.443Z,12.65
2019-04-29T10:54:41.433Z,12.62
2019-04-29T10:55:41.416Z,12.70
2019-04-29T10:56:41.448Z,12.65
2019-04-29T10:57:44.921Z,12.78
2019-04-29T10:58:42.386Z,12.74
2019-04-29T10:59:44.999Z,12.79
2019-04-29T11:00:41.375Z,12.79
2019-04-29T11:01:41.359Z,12.82
2019-04-29T11:02:44.854Z,12.83
2019-04-29T11:03:42.325Z,12.79
2019-04-29T11:04:41.352Z,12.72
2019-04-29T11:05:42.911Z,12.65
2019-04-29T11:06:44.010Z,12.67
2019-04-29T11:07:41.315Z,12.62
2019-04-29T11:08:43.138Z,12.68
2019-04-29T11:09:41.259Z,12.65
2019-04-29T11:10:41.247Z,12.62
2019-04-29T11:11:41.249Z,12.65
2019-04-29T11:12:41.302Z,12.65
2019-04-29T11:13:48.249Z,12.64
2019-04-29T11:14:42.208Z,12.64
2019-04-29T11:15:45.015Z,12.67
2019-04-29T11:16:46.356Z,12.74
2019-04-29T11:17:44.409Z,12.70
2019-04-29T11:18:41.170Z,12.79
2019-04-29T11:19:41.698Z,12.79
2019-04-29T11:20:44.346Z,12.82
2019-04-29T11:21:41.130Z,12.72
2019-04-29T11:22:44.367Z,12.85
2019-04-29T11:23:41.098Z,12.77
2019-04-29T11:24:41.092Z,12.75
2019-04-29T11:25:41.102Z,12.75
2019-04-29T11:26:41.089Z,12.83
2019-04-29T11:27:41.102Z,12.83
2019-04-29T11:28:41.042Z,12.83
2019-04-29T11:29:41.033Z,12.96
2019-04-29T11:30:41.027Z,12.96
2019-04-29T11:31:41.033Z,13.00
2019-04-29T11:32:40.996Z,13.03
2019-04-29T11:33:41.693Z,13.08
2019-04-29T11:34:40.978Z,13.05
2019-04-29T11:35:40.969Z,13.07
2019-04-29T11:36:44.094Z,13.14
2019-04-29T11:37:40.941Z,13.12
2019-04-29T11:38:40.962Z,13.08
2019-04-29T11:39:40.922Z,13.07
2019-04-29T11:40:43.429Z,13.14
2019-04-29T11:41:40.907Z,13.23
2019-04-29T11:42:41.782Z,13.28
2019-04-29T11:43:40.919Z,13.23
2019-04-29T11:44:40.859Z,13.30
2019-04-29T11:45:40.850Z,13.15
2019-04-29T11:46:44.653Z,13.08
2019-04-29T11:47:41.881Z,13.14
2019-04-29T11:48:40.846Z,13.17
2019-04-29T11:49:40.808Z,13.15
2019-04-29T11:50:40.806Z,13.28
2019-04-29T11:52:07.324Z,13.22
2019-04-29T11:52:41.778Z,13.29
2019-04-29T11:53:40.794Z,13.42
2019-04-29T11:54:40.750Z,13.42
2019-04-29T11:55:43.459Z,13.44
2019-04-29T11:56:41.731Z,13.42
2019-04-29T11:57:41.389Z,13.49
2019-04-29T11:58:40.823Z,13.45
2019-04-29T11:59:40.709Z,13.42
2019-04-29T12:00:40.700Z,13.44
2019-04-29T12:01:46.887Z,13.44
2019-04-29T12:02:45.785Z,13.45
2019-04-29T12:03:40.691Z,13.48
2019-04-29T12:04:42.232Z,13.59
2019-04-29T12:05:44.919Z,13.54
2019-04-29T12:06:41.618Z,13.64
2019-04-29T12:07:40.606Z,13.63
2019-04-29T12:08:40.683Z,13.59
2019-04-29T12:09:40.586Z,13.66
2019-04-29T12:10:48.450Z,13.78
2019-04-29T12:11:41.571Z,13.85
2019-04-29T12:12:43.601Z,14.00
2019-04-29T12:13:41.595Z,14.03
2019-04-29T12:14:40.526Z,14.12
2019-04-29T12:15:40.518Z,14.14
2019-04-29T12:16:40.509Z,14.27
2019-04-29T12:17:40.491Z,14.27
2019-04-29T12:18:40.540Z,14.24
2019-04-29T12:19:40.466Z,14.35
2019-04-29T12:20:40.464Z,14.29
2019-04-29T12:21:40.457Z,14.28
2019-04-29T12:22:48.274Z,14.46
2019-04-29T12:23:41.462Z,14.43
2019-04-29T12:24:40.477Z,14.57
2019-04-29T12:25:40.399Z,14.58
2019-04-29T12:26:44.368Z,14.72
2019-04-29T12:27:40.379Z,14.72
2019-04-29T12:28:43.113Z,14.70
2019-04-29T12:29:40.417Z,14.78
2019-04-29T12:30:40.344Z,14.84
2019-04-29T12:31:40.336Z,14.88
2019-04-29T12:32:43.360Z,15.11
2019-04-29T12:33:40.314Z,15.20
2019-04-29T12:34:40.331Z,15.16
2019-04-29T12:35:51.055Z,15.16
2019-04-29T12:36:54.624Z,15.36
2019-04-29T12:37:41.275Z,15.44
2019-04-29T12:38:40.618Z,15.41
2019-04-29T12:39:44.855Z,15.46
2019-04-29T12:40:40.241Z,15.53
2019-04-29T12:41:48.724Z,15.57
2019-04-29T12:42:41.508Z,15.75
2019-04-29T12:43:40.206Z,16.04
2019-04-29T12:44:44.486Z,16.56
2019-04-29T12:45:41.185Z,17.51
2019-04-29T12:46:40.175Z,18.35
2019-04-29T12:47:40.160Z,19.39
2019-04-29T12:48:40.140Z,19.31
2019-04-29T12:49:42.397Z,19.00
2019-04-29T12:50:41.122Z,18.69
2019-04-29T12:51:40.113Z,18.62
2019-04-29T12:52:40.103Z,18.55
2019-04-29T12:53:40.088Z,18.41
2019-04-29T12:54:42.022Z,18.26
2019-04-29T12:55:44.957Z,18.25
2019-04-29T12:56:43.300Z,18.35
2019-04-29T12:57:41.042Z,18.44
2019-04-29T12:58:40.033Z,18.26
2019-04-29T12:59:40.164Z,18.29